createdAt,value
2023-09-06T00:01:05.576Z,3.47
2023-09-06T00:03:34.128Z,3.57
2023-09-06T00:06:01.758Z,3.58
2023-09-06T00:08:29.390Z,3.40
2023-09-06T00:10:57.307Z,3.58
2023-09-06T00:13:24.781Z,3.40
2023-09-06T00:15:52.326Z,3.62
2023-09-06T00:18:20.098Z,3.70
2023-09-06T00:20:47.496Z,3.58
2023-09-06T00:23:16.051Z,3.20
2023-09-06T00:25:45.475Z,3.30
2023-09-06T00:28:14.186Z,3.45
2023-09-06T00:30:45.676Z,3.40
2023-09-06T00:33:14.979Z,3.50
2023-09-06T00:35:42.411Z,3.17
2023-09-06T00:38:09.926Z,3.40
2023-09-06T00:40:38.808Z,3.45
2023-09-06T00:43:07.459Z,3.50
2023-09-06T00:45:45.317Z,3.37
2023-09-06T00:48:14.413Z,3.50
2023-09-06T00:50:42.364Z,3.35
2023-09-06T00:53:10.206Z,3.20
2023-09-06T00:55:42.360Z,3.57
2023-09-06T00:58:10.286Z,3.08
2023-09-06T01:00:38.216Z,3.47
2023-09-06T01:03:06.277Z,3.17
2023-09-06T01:05:41.288Z,3.17
2023-09-06T01:08:12.783Z,3.22
2023-09-06T01:10:40.239Z,3.15
2023-09-06T01:13:07.953Z,3.40
2023-09-06T01:15:37.161Z,3.00
2023-09-06T01:18:06.069Z,3.30
2023-09-06T01:20:44.181Z,2.92
2023-09-06T01:23:34.849Z,3.37
2023-09-06T01:26:03.120Z,3.30
2023-09-06T01:28:31.781Z,2.90
2023-09-06T01:31:01.507Z,2.95
2023-09-06T01:33:30.377Z,3.20
2023-09-06T01:35:58.681Z,3.10
2023-09-06T01:38:26.536Z,2.90
2023-09-06T01:40:54.742Z,3.20
2023-09-06T01:43:22.568Z,3.33
2023-09-06T01:45:52.151Z,3.00
2023-09-06T01:48:22.666Z,3.03
2023-09-06T01:50:50.732Z,3.50
2023-09-06T01:53:18.216Z,3.40
2023-09-06T01:55:45.637Z,3.30
2023-09-06T01:58:13.868Z,3.30
2023-09-06T02:00:41.673Z,3.37
2023-09-06T02:03:11.528Z,3.20
2023-09-06T02:05:40.813Z,3.40
2023-09-06T02:08:09.150Z,3.03
2023-09-06T02:10:36.950Z,3.20
2023-09-06T02:13:06.340Z,3.30
2023-09-06T02:15:33.788Z,3.00
2023-09-06T02:18:16.765Z,3.00
2023-09-06T02:20:45.755Z,3.10
2023-09-06T02:23:13.346Z,3.47
2023-09-06T02:25:41.070Z,3.15
2023-09-06T02:28:09.846Z,3.20
2023-09-06T02:30:40.288Z,3.40
2023-09-06T02:33:11.097Z,3.30
2023-09-06T02:35:41.934Z,3.12
2023-09-06T02:38:11.966Z,3.20
2023-09-06T02:40:44.112Z,3.10
2023-09-06T02:43:14.852Z,3.12
2023-09-06T02:45:51.125Z,3.20
2023-09-06T02:48:20.974Z,3.30
2023-09-06T02:50:49.107Z,3.12
2023-09-06T02:53:21.505Z,3.10
2023-09-06T02:55:53.328Z,3.05
2023-09-06T02:58:25.675Z,3.53
2023-09-06T03:01:00.067Z,3.55
2023-09-06T03:03:28.993Z,3.35
2023-09-06T03:05:59.082Z,3.20
2023-09-06T03:08:29.714Z,3.50
2023-09-06T03:10:58.356Z,3.25
2023-09-06T03:13:26.245Z,3.28
2023-09-06T03:15:55.532Z,3.35
2023-09-06T03:18:24.807Z,3.40
2023-09-06T03:20:56.633Z,3.20
2023-09-06T03:23:25.769Z,3.35
2023-09-06T03:25:59.259Z,3.40
2023-09-06T03:28:29.774Z,3.10
2023-09-06T03:31:01.053Z,3.40
2023-09-06T03:33:29.679Z,3.40
2023-09-06T03:35:57.568Z,3.30
2023-09-06T03:38:27.581Z,3.33
2023-09-06T03:40:57.155Z,3.15
2023-09-06T03:43:32.025Z,3.30
2023-09-06T03:46:08.643Z,3.53
2023-09-06T03:48:37.021Z,3.62
2023-09-06T03:51:05.862Z,3.42
2023-09-06T03:53:35.079Z,3.77
2023-09-06T03:56:02.649Z,3.35
2023-09-06T03:58:35.414Z,3.40
2023-09-06T04:01:05.353Z,3.72
2023-09-06T04:03:34.424Z,3.53
2023-09-06T04:06:04.379Z,3.87
2023-09-06T04:08:34.999Z,3.65
2023-09-06T04:11:03.264Z,3.50
2023-09-06T04:13:30.829Z,3.80
2023-09-06T04:15:58.362Z,3.80
2023-09-06T04:18:26.906Z,3.92
2023-09-06T04:20:54.449Z,3.67
2023-09-06T04:23:22.300Z,3.33
2023-09-06T04:25:50.929Z,3.60
2023-09-06T04:28:22.196Z,3.50
2023-09-06T04:30:50.195Z,3.90
2023-09-06T04:33:18.719Z,3.87
2023-09-06T04:35:48.612Z,3.97
2023-09-06T04:38:18.129Z,4.20
2023-09-06T04:40:47.608Z,3.95
2023-09-06T04:43:19.571Z,3.67
2023-09-06T04:45:50.629Z,3.80
2023-09-06T04:48:19.012Z,3.62
2023-09-06T04:50:48.471Z,3.87
2023-09-06T04:53:19.198Z,3.70
2023-09-06T04:55:51.222Z,3.40
2023-09-06T04:58:19.667Z,3.50
2023-09-06T05:00:49.374Z,3.72
2023-09-06T05:03:20.994Z,3.95
2023-09-06T05:05:52.355Z,3.33
2023-09-06T05:08:21.314Z,3.87
2023-09-06T05:10:52.957Z,3.33
2023-09-06T05:13:21.422Z,3.40
2023-09-06T05:15:49.162Z,3.62
2023-09-06T05:18:17.587Z,3.65
2023-09-06T05:20:45.353Z,3.67
2023-09-06T05:23:16.313Z,3.78
2023-09-06T05:25:45.163Z,3.65
2023-09-06T05:28:16.024Z,3.70
2023-09-06T05:30:45.687Z,3.75
2023-09-06T05:33:15.155Z,3.90
2023-09-06T05:35:43.929Z,3.83
2023-09-06T05:38:11.856Z,4.57
2023-09-06T05:40:44.611Z,3.80
2023-09-06T05:43:12.691Z,3.70
2023-09-06T05:45:40.874Z,4.10
2023-09-06T05:48:11.689Z,3.67
2023-09-06T05:50:40.319Z,3.67
2023-09-06T05:53:08.172Z,3.58
2023-09-06T05:55:35.692Z,3.70
2023-09-06T05:58:03.938Z,3.45
2023-09-06T06:00:32.782Z,3.70
2023-09-06T06:03:03.223Z,3.30
2023-09-06T06:05:30.794Z,3.70
2023-09-06T06:07:59.146Z,3.72
2023-09-06T06:10:30.586Z,3.73
2023-09-06T06:12:58.146Z,3.70
2023-09-06T06:15:26.722Z,3.62
2023-09-06T06:17:54.511Z,3.70
2023-09-06T06:20:30.846Z,3.75
2023-09-06T06:23:06.542Z,3.65
2023-09-06T06:25:34.017Z,3.35
2023-09-06T06:28:01.542Z,3.70
2023-09-06T06:30:29.525Z,3.83
2023-09-06T06:32:57.232Z,3.47
2023-09-06T06:35:24.726Z,3.80
2023-09-06T06:37:52.510Z,3.70
2023-09-06T06:40:19.987Z,3.60
2023-09-06T06:42:47.494Z,3.28
2023-09-06T06:45:18.072Z,3.75
2023-09-06T06:47:45.863Z,3.35
2023-09-06T06:50:13.515Z,3.00
2023-09-06T06:52:45.615Z,2.97
2023-09-06T06:55:13.556Z,2.70
2023-09-06T06:57:41.435Z,2.55
2023-09-06T07:00:12.524Z,2.80
2023-09-06T07:02:40.455Z,2.37
2023-09-06T07:05:09.215Z,2.50
2023-09-06T07:07:36.769Z,2.35
2023-09-06T07:10:04.485Z,2.10
2023-09-06T07:12:32.306Z,2.17
2023-09-06T07:14:59.812Z,2.40
2023-09-06T07:17:27.427Z,2.87
2023-09-06T07:19:55.400Z,2.28
2023-09-06T07:22:23.030Z,2.17
2023-09-06T07:24:51.744Z,2.20
2023-09-06T08:11:43.768Z,1.83
2023-09-06T08:14:11.195Z,2.40
2023-09-06T08:16:38.955Z,2.60
2023-09-06T08:19:06.736Z,2.55
2023-09-06T08:21:35.677Z,2.40
2023-09-06T08:24:03.670Z,2.62
2023-09-06T08:26:31.441Z,2.72
2023-09-06T08:28:59.382Z,2.47
2023-09-06T08:31:27.086Z,2.57
2023-09-06T08:33:55.128Z,2.55
2023-09-06T08:36:22.879Z,2.50
2023-09-06T08:38:50.553Z,2.45
2023-09-06T08:41:18.735Z,2.60
2023-09-06T08:43:46.406Z,2.70
2023-09-06T08:46:28.294Z,2.70
2023-09-06T08:48:57.354Z,2.40
2023-09-06T08:51:25.728Z,2.70
2023-09-06T08:53:53.773Z,2.72
2023-09-06T08:56:21.734Z,2.42
2023-09-06T08:58:49.246Z,2.47
2023-09-06T09:01:16.995Z,2.47
2023-09-06T09:03:44.949Z,2.33
2023-09-06T09:06:12.725Z,2.42
2023-09-06T09:08:40.235Z,2.25
2023-09-06T09:11:16.306Z,2.60
2023-09-06T09:13:44.042Z,2.40
2023-09-06T09:16:16.754Z,2.30
2023-09-06T09:18:46.791Z,2.30
2023-09-06T09:21:15.051Z,2.25
2023-09-06T09:23:48.108Z,2.20
2023-09-06T09:26:17.439Z,2.20
2023-09-06T09:28:44.859Z,2.33
